OMRK

Ras Al Khaimah International Airport

Ras Al Khaimah, United Arab Emirates
TAF OMRK 202256Z 2100/2206 VRB02KT 7000 NSC PROB30 2100/2105 3000 BR BECMG 2107/2109 34013KT BECMG 2115/2117 VRB02KT
Issued Valid From Valid To
Apr-20 @ 22:56 UTC
(5 hours ago)
Apr-21 @ 00:00 UTC
(4 hours ago)
Apr-22 @ 06:00 UTC
(-1 days ago)
Apr-21 @ 00:00 to Apr-21 @ 07:00
TAF OMRK 202256Z 2100/2206 VRB02KT 7000 NSC
Wind Visibility Clouds
Variable at 2 knots 7,001 meters
  • No significant clouds
Probable  (Probability 30%) Apr-21 @ 00:00 to Apr-21 @ 05:00
PROB30 2100/2105 3000 BR
Visibility Conditions
2,993 meters
  • Mist
Becoming Apr-21 @ 07:00 to Apr-21 @ 15:00
BECMG 2107/2109 34013KT
Wind Visibility Clouds
340° at 13 knots 7,001 meters
  • No significant clouds
Becoming Apr-21 @ 15:00 to Apr-22 @ 06:00
BECMG 2115/2117 VRB02KT
Wind Visibility Clouds
Variable at 2 knots 7,001 meters
  • No significant clouds
TAF OMRK 202256Z 2100/2206 VRB02KT 7000 NSC PROB30 2100/2105 3000 BR BECMG 2107/2109 34013KT BECMG 2115/2117 VRB02KT
Issued Apr-20 @ 22:56 UTC
(5 hours ago)
Valid From Apr-21 @ 00:00 UTC
(4 hours ago)
Valid To Apr-22 @ 06:00 UTC
(-1 days ago)
Apr-21 @ 00:00 - Apr-21 @ 07:00
Wind Visibility
Variable at 2 knots 7,001 meters
Clouds
  • No significant clouds
Probability 30% Probable Apr-21 @ 00:00 - Apr-21 @ 05:00
Conditions
  • Mist
Becoming Apr-21 @ 07:00 - Apr-21 @ 15:00
Wind Visibility
340° at 13 knots 7,001 meters
Clouds
  • No significant clouds
Becoming Apr-21 @ 15:00 - Apr-22 @ 06:00
Wind Visibility
Variable at 2 knots 7,001 meters
Clouds
  • No significant clouds